Terminal Aerodrome Forecast
Issued by NWS

Home | Current Version | Previous Version | Text Only | Print | Product List | Glossary On
Versions: 1 2 3 4 5 6 7 8 9 10 11
000
FTUS46 KMTR 290500
TAFSJC
TAF
KSJC 290520Z 2906/3006 VRB03KT P6SM BKN020
     FM291200 15004KT P6SM SCT025
     FM291600 VRB03KT P6SM SKC
     FM291800 32008KT P6SM SKC
     FM300400 32004KT P6SM SKC=

USA.gov is the U.S. government's official web portal to all federal, state and local government web resources and services.